Olathe, Kansas
Current Conditions -  °F | °C
As of 7:53 AM on Saturday 25 Oct 2014 (Local Time) from KOJC Reporting Station
Moderate Fog Moderate Fog  
Wind Chill: 53°   Ceiling: 100
Heat Index: 53°   Visibility: 0mi
Dew Point: 53°   Wind: 0mph
Humidity: 100%   Direction: NA
Pressure: 30.05"   Gusts: NA
Location:  38.88°N, 94.82°W
Report Text: KOJC 251253Z 00000KT M1/4SM FG VV001 12/12 A3005 RMK AO2 SLP170 T01170117
Loading
Personal Weather Stations






























Interactive Weather Map
Tropical Storm Tracking
New forecast layout! Learn more

10-Day Weather Forecast

Advertisements
Track Severe Weather on mobile